Time;durP1;ratioP1;P1;durP2;ratioP2;P2;SDS_P1;SDS_P2;PMS_P1;PMS_P2;Temp;Humidity;BMP_temperature;BMP_pressure;BME280_temperature;BME280_humidity;BME280_pressure;Samples;Min_cycle;Max_cycle;Signal;HPM_P1;HPM_P2
2022/09/09 00:00:59;;;;;;;;;;;;;;;23.20;100.00;98238.13;5072480;28;19920;-46
2022/09/09 00:03:26;;;;;;;;;;;;;;;22.77;100.00;98229.06;5073673;28;19947;-45
2022/09/09 00:05:59;;;;;;;;;;;;;;;23.18;100.00;98230.38;5071325;28;19995;-46
2022/09/09 00:08:26;;;;;;;;;;;;;;;22.91;100.00;98225.13;5052613;28;20289;-45
2022/09/09 00:10:54;;;;;;;;;;;;;;;22.92;100.00;98232.88;5055003;28;19923;-46
2022/09/09 00:13:25;;;;;;;;;;;;;;;22.82;100.00;98231.25;5071977;28;20562;-46
2022/09/09 00:15:57;;;;;;;;;;;;;;;22.97;100.00;98225.38;5055122;28;20425;-46
2022/09/09 00:18:22;;;;;;;;;;;;;;;23.43;100.00;98229.81;5071357;28;19924;-46
2022/09/09 00:20:50;;;;;;;;;;;;;;;23.13;100.00;98239.69;5071368;28;19966;-46
2022/09/09 00:23:24;;;;;;;;;;;;;;;23.53;100.00;98230.56;5054763;28;19920;-45
2022/09/09 00:26:13;;;;;;;;;;;;;;;23.80;100.00;98227.03;5072157;28;20015;-45
2022/09/09 00:28:45;;;;;;;;;;;;;;;23.79;100.00;98226.22;5061287;28;19980;-46
2022/09/09 00:31:15;;;;;;;;;;;;;;;23.86;100.00;98225.63;5054618;28;19932;-47
2022/09/09 00:33:42;;;;;;;;;;;;;;;23.74;100.00;98223.25;5053522;28;20747;-46
2022/09/09 00:36:09;;;;;;;;;;;;;;;23.55;100.00;98231.22;5070143;28;20566;-47
2022/09/09 00:38:36;;;;;;;;;;;;;;;23.59;100.00;98229.97;5054118;28;19963;-46
2022/09/09 00:41:12;;;;;;;;;;;;;;;23.28;100.00;98237.38;5054380;28;20575;-49
2022/09/09 00:43:39;;;;;;;;;;;;;;;23.43;100.00;98229.81;5054529;28;20027;-46
2022/09/09 00:46:10;;;;;;;;;;;;;;;23.42;100.00;98233.41;5071679;28;20681;-45
2022/09/09 00:48:54;;;;;;;;;;;;;;;22.35;100.00;98250.47;5073325;28;20010;-47
2022/09/09 00:51:23;;;;;;;;;;;;;;;23.31;100.00;98235.28;5073100;28;19920;-45
2022/09/09 00:53:54;;;;;;;;;;;;;;;23.78;100.00;98229.00;5072356;28;19974;-45
2022/09/09 00:56:21;;;;;;;;;;;;;;;23.24;100.00;98236.88;5071830;28;19920;-46
2022/09/09 00:58:59;;;;;;;;;;;;;;;23.47;100.00;98223.25;5053436;28;20327;-47
2022/09/09 01:01:25;;;;;;;;;;;;;;;22.34;100.00;98231.28;5053086;28;20585;-49
2022/09/09 01:03:50;;;;;;;;;;;;;;;22.97;100.00;98229.81;5072714;28;19927;-46
2022/09/09 01:06:22;;;;;;;;;;;;;;;23.61;100.00;98217.50;5073646;28;19936;-46
2022/09/09 01:08:57;;;;;;;;;;;;;;;23.50;100.00;98209.84;5075156;28;20277;-46
2022/09/09 01:11:25;;;;;;;;;;;;;;;23.19;100.00;98228.56;5073536;28;20054;-47
2022/09/09 01:13:53;;;;;;;;;;;;;;;23.29;100.00;98224.09;5075864;28;20285;-46
2022/09/09 01:16:19;;;;;;;;;;;;;;;23.01;100.00;98230.34;5056458;28;20988;-46
2022/09/09 01:18:45;;;;;;;;;;;;;;;23.27;100.00;98231.31;5058502;28;19920;-46
2022/09/09 01:21:13;;;;;;;;;;;;;;;22.79;100.00;98232.38;5057173;28;19916;-46
2022/09/09 01:23:39;;;;;;;;;;;;;;;23.12;100.00;98217.00;5074483;28;19920;-48
2022/09/09 01:26:14;;;;;;;;;;;;;;;23.43;100.00;98216.69;5073670;28;19985;-46
2022/09/09 01:28:39;;;;;;;;;;;;;;;23.37;100.00;98215.47;5073525;28;19920;-47
2022/09/09 01:31:05;;;;;;;;;;;;;;;23.09;100.00;98217.31;5056178;28;20412;-46
2022/09/09 01:33:31;;;;;;;;;;;;;;;;;;5057390;28;19920;-47
2022/09/09 01:36:09;;;;;;;;;;;;;;;22.87;100.00;98219.31;5073793;28;20434;-45
2022/09/09 01:38:35;;;;;;;;;;;;;;;23.29;100.00;98218.84;5073920;28;19974;-46
2022/09/09 01:41:00;;;;;;;;;;;;;;;22.99;100.00;98222.63;5074001;28;19923;-45
2022/09/09 01:43:25;;;;;;;;;;;;;;;22.84;100.00;98219.63;5073405;28;19958;-46
2022/09/09 01:45:51;;;;;;;;;;;;;;;22.49;100.00;98215.09;5074371;28;19998;-47
2022/09/09 01:48:16;;;;;;;;;;;;;;;23.09;100.00;98217.31;5074216;28;20627;-48
2022/09/09 01:50:41;;;;;;;;;;;;;;;22.68;100.00;98214.19;5042251;28;19924;-47
2022/09/09 01:53:07;;;;;;;;;;;;;;;23.01;100.00;98218.03;5075535;28;19998;-47
2022/09/09 01:55:33;;;;;;;;;;;;;;;22.98;100.00;98216.50;5074191;28;20403;-46
2022/09/09 01:58:02;;;;;;;;;;;;;;;22.95;100.00;98223.88;5056160;28;20297;-46
2022/09/09 02:00:27;;;;;;;;;;;;;;;22.85;100.00;98216.00;5072110;28;19935;-46
2022/09/09 02:02:55;;;;;;;;;;;;;;;22.93;100.00;98217.94;5073228;28;19931;-45
2022/09/09 02:05:20;;;;;;;;;;;;;;;22.46;100.00;98221.44;5073947;28;19920;-46
2022/09/09 02:07:47;;;;;;;;;;;;;;;22.67;100.00;98230.88;5073288;28;19924;-48
2022/09/09 02:10:12;;;;;;;;;;;;;;;23.09;100.00;98223.38;5073081;28;19972;-46
2022/09/09 02:12:42;;;;;;;;;;;;;;;23.01;100.00;98225.09;5072524;28;19924;-46
2022/09/09 02:15:11;;;;;;;;;;;;;;;22.90;100.00;98229.56;5055824;28;19924;-46
2022/09/09 02:17:36;;;;;;;;;;;;;;;22.58;100.00;98224.72;5052864;28;19981;-46
2022/09/09 02:20:04;;;;;;;;;;;;;;;22.68;100.00;98219.44;5055839;28;19920;-46
2022/09/09 02:22:29;;;;;;;;;;;;;;;22.88;100.00;98215.75;5054712;28;20015;-46
2022/09/09 02:24:55;;;;;;;;;;;;;;;22.69;100.00;98218.44;5054649;28;19922;-46
2022/09/09 02:27:21;;;;;;;;;;;;;;;22.31;100.00;98222.88;5054653;28;19923;-45
2022/09/09 02:29:47;;;;;;;;;;;;;;;22.59;100.00;98225.56;5053756;28;19920;-45
2022/09/09 02:32:14;;;;;;;;;;;;;;;21.83;100.00;98231.66;5049689;28;19920;-48
2022/09/09 02:34:40;;;;;;;;;;;;;;;22.11;100.00;98222.88;5054689;28;19970;-46
2022/09/09 02:37:06;;;;;;;;;;;;;;;21.49;100.00;98238.13;5054164;28;19920;-46
2022/09/09 02:39:31;;;;;;;;;;;;;;;22.29;100.00;98228.28;5055424;28;21009;-46
2022/09/09 02:41:57;;;;;;;;;;;;;;;22.50;100.00;98228.06;5072953;28;19920;-47
2022/09/09 02:44:22;;;;;;;;;;;;;;;21.91;100.00;98234.38;5072074;28;19973;-46
2022/09/09 02:47:06;;;;;;;;;;;;;;;22.16;100.00;98229.50;5072715;28;20038;-48
2022/09/09 02:49:31;;;;;;;;;;;;;;;22.18;100.00;98233.66;5071948;28;20073;-46
2022/09/09 02:52:00;;;;;;;;;;;;;;;21.33;100.00;98231.75;5074177;28;20482;-47
2022/09/09 02:54:36;;;;;;;;;;;;;;;21.50;100.00;98241.56;5072729;28;19920;-46
2022/09/09 02:57:04;;;;;;;;;;;;;;;21.22;100.00;98233.50;5054789;28;19916;-47
2022/09/09 02:59:30;;;;;;;;;;;;;;;21.69;100.00;98240.72;5072390;28;19931;-46
2022/09/09 03:01:55;;;;;;;;;;;;;;;21.93;100.00;98237.69;5054204;28;19920;-46
2022/09/09 03:04:21;;;;;;;;;;;;;;;22.32;100.00;98235.03;5072236;28;19969;-46
2022/09/09 03:06:46;;;;;;;;;;;;;;;22.22;100.00;98234.22;5072243;28;20034;-46
2022/09/09 03:09:11;;;;;;;;;;;;;;;21.08;100.00;98239.94;5073015;28;19916;-45
2022/09/09 03:11:36;;;;;;;;;;;;;;;21.51;100.00;98240.59;5072328;28;19928;-46
2022/09/09 03:14:02;;;;;;;;;;;;;;;21.43;100.00;98238.66;5073523;28;19920;-46
2022/09/09 03:16:27;;;;;;;;;;;;;;;21.75;100.00;98234.13;5072009;28;19950;-46
2022/09/09 03:18:52;;;;;;;;;;;;;;;21.69;100.00;98232.84;5073146;28;20053;-47
2022/09/09 03:21:18;;;;;;;;;;;;;;;21.26;100.00;98232.28;5073001;28;19923;-46
2022/09/09 03:23:44;;;;;;;;;;;;;;;21.48;100.00;98230.38;5072912;28;19920;-46
2022/09/09 03:26:10;;;;;;;;;;;;;;;21.41;100.00;98234.53;5071298;28;19912;-46
2022/09/09 03:28:35;;;;;;;;;;;;;;;20.31;100.00;98245.66;5073755;28;19985;-47
2022/09/09 03:31:01;;;;;;;;;;;;;;;22.05;100.00;98222.63;5072014;28;20086;-46
2022/09/09 03:33:26;;;;;;;;;;;;;;;21.06;100.00;98238.44;5073178;28;19916;-46
2022/09/09 03:35:51;;;;;;;;;;;;;;;21.32;100.00;98236.13;5053508;28;20238;-46
2022/09/09 03:38:17;;;;;;;;;;;;;;;21.33;100.00;98234.34;5073400;28;19916;-46
2022/09/09 03:40:50;;;;;;;;;;;;;;;20.94;100.00;98231.63;5071237;28;19963;-46
2022/09/09 03:43:16;;;;;;;;;;;;;;;21.55;100.00;98234.09;5070257;28;19996;-45
2022/09/09 03:45:46;;;;;;;;;;;;;;;22.08;100.00;98233.69;5070476;28;20983;-45
2022/09/09 03:48:11;;;;;;;;;;;;;;;22.51;100.00;98229.72;5072515;28;19920;-45
2022/09/09 03:50:36;;;;;;;;;;;;;;;22.26;100.00;98230.34;5071721;28;19927;-49
2022/09/09 03:53:02;;;;;;;;;;;;;;;22.58;100.00;98223.88;5074152;28;19920;-46
2022/09/09 03:55:27;;;;;;;;;;;;;;;22.45;100.00;98219.78;5072896;28;19956;-45
2022/09/09 03:57:52;;;;;;;;;;;;;;;22.47;100.00;98217.84;5072817;28;20018;-46
2022/09/09 04:00:17;;;;;;;;;;;;;;;22.59;100.00;98212.44;5072856;28;19953;-46
2022/09/09 04:02:43;;;;;;;;;;;;;;;22.73;100.00;98217.19;5073997;28;20407;-45
2022/09/09 04:05:09;;;;;;;;;;;;;;;22.49;100.00;98209.84;5072951;28;20261;-46
2022/09/09 04:07:34;;;;;;;;;;;;;;;21.75;100.00;98221.00;5072161;28;20003;-46
2022/09/09 04:09:59;;;;;;;;;;;;;;;22.03;100.00;98214.91;5072866;28;19963;-46
2022/09/09 04:12:24;;;;;;;;;;;;;;;21.80;100.00;98214.38;5072524;28;19952;-47
2022/09/09 04:14:50;;;;;;;;;;;;;;;22.23;100.00;98212.28;5074032;28;19916;-46
2022/09/09 04:17:15;;;;;;;;;;;;;;;22.25;100.00;98219.03;5072302;28;19920;-46
2022/09/09 04:19:42;;;;;;;;;;;;;;;21.85;100.00;98221.81;5071646;28;19939;-46
2022/09/09 04:22:07;;;;;;;;;;;;;;;21.87;100.00;98225.97;5073457;28;19916;-46
2022/09/09 04:24:32;;;;;;;;;;;;;;;21.60;100.00;98224.06;5072662;28;20211;-46
2022/09/09 04:26:57;;;;;;;;;;;;;;;21.78;100.00;98220.72;5072038;28;20065;-46
2022/09/09 04:29:23;;;;;;;;;;;;;;;21.97;100.00;98218.09;5072547;28;19927;-45
2022/09/09 04:31:48;;;;;;;;;;;;;;;22.23;100.00;98214.88;5069790;28;19963;-45
2022/09/09 04:34:13;;;;;;;;;;;;;;;22.13;100.00;98212.28;5072350;28;19982;-46
2022/09/09 04:36:40;;;;;;;;;;;;;;;21.93;100.00;98221.97;5071559;28;19927;-46
2022/09/09 04:39:05;;;;;;;;;;;;;;;22.22;100.00;98223.75;5073740;28;20560;-46
2022/09/09 04:41:31;;;;;;;;;;;;;;;21.77;100.00;98224.31;5073261;28;19919;-46
2022/09/09 04:43:56;;;;;;;;;;;;;;;21.60;100.00;98237.16;5076378;28;20657;-47
2022/09/09 04:46:22;;;;;;;;;;;;;;;22.03;100.00;98225.41;5072231;28;19931;-45
2022/09/09 04:48:49;;;;;;;;;;;;;;;22.10;100.00;98221.25;5074013;28;19912;-45
2022/09/09 04:51:14;;;;;;;;;;;;;;;22.21;100.00;98227.28;5077400;28;19955;-46
2022/09/09 04:53:40;;;;;;;;;;;;;;;21.53;100.00;98228.19;5075693;28;20006;-46
2022/09/09 04:56:09;;;;;;;;;;;;;;;21.83;100.00;98221.16;5073324;28;19921;-46
2022/09/09 04:58:35;;;;;;;;;;;;;;;22.15;100.00;98228.69;5073128;28;19924;-45
2022/09/09 05:01:07;;;;;;;;;;;;;;;21.49;100.00;98232.06;5075208;28;19927;-45
2022/09/09 05:03:33;;;;;;;;;;;;;;;21.27;100.00;98225.22;5076796;28;20408;-45
2022/09/09 05:06:04;;;;;;;;;;;;;;;21.50;100.00;98233.69;5075977;28;19916;-46
2022/09/09 05:08:29;;;;;;;;;;;;;;;20.83;100.00;98240.44;5075725;28;19931;-46
2022/09/09 05:10:55;;;;;;;;;;;;;;;21.21;100.00;98233.63;5076385;28;19916;-45
2022/09/09 05:13:20;;;;;;;;;;;;;;;21.25;100.00;98240.25;5076136;28;19920;-46
2022/09/09 05:15:55;;;;;;;;;;;;;;;21.52;100.00;98239.63;5075503;28;19977;-46
2022/09/09 05:18:21;;;;;;;;;;;;;;;21.20;100.00;98243.28;5075805;28;19915;-45
2022/09/09 05:20:46;;;;;;;;;;;;;;;21.91;100.00;98239.63;5076893;28;19924;-47
2022/09/09 05:23:13;;;;;;;;;;;;;;;21.67;100.00;98240.06;5076210;28;20336;-46
2022/09/09 05:25:38;;;;;;;;;;;;;;;21.58;100.00;98241.72;5075588;28;19969;-46
2022/09/09 05:28:03;;;;;;;;;;;;;;;21.37;100.00;98243.56;5075591;28;20669;-46
2022/09/09 05:30:28;;;;;;;;;;;;;;;21.51;100.00;98245.84;5076054;28;19927;-46
2022/09/09 05:32:55;;;;;;;;;;;;;;;21.41;100.00;98234.53;5075607;28;19962;-46
2022/09/09 05:35:21;;;;;;;;;;;;;;;21.91;100.00;98237.81;5075786;28;19985;-46
2022/09/09 05:37:47;;;;;;;;;;;;;;;22.66;100.00;98237.94;5075426;28;19920;-45
2022/09/09 05:40:13;;;;;;;;;;;;;;;22.44;100.00;98239.16;5075627;28;20693;-46
2022/09/09 05:42:38;;;;;;;;;;;;;;;22.44;100.00;98235.69;5075428;28;20007;-46
2022/09/09 05:45:04;;;;;;;;;;;;;;;21.33;100.00;98242.22;5075972;28;19916;-46
2022/09/09 05:47:29;;;;;;;;;;;;;;;22.37;100.00;98238.03;5074730;28;19981;-47
2022/09/09 05:49:55;;;;;;;;;;;;;;;22.86;100.00;98238.69;5075886;28;19991;-47
2022/09/09 05:52:20;;;;;;;;;;;;;;;22.68;100.00;98240.44;5074527;28;19913;-46
2022/09/09 05:54:45;;;;;;;;;;;;;;;21.69;100.00;98244.19;5075110;28;19955;-46
2022/09/09 05:57:10;;;;;;;;;;;;;;;21.82;100.00;98237.84;5074249;28;19916;-46
2022/09/09 05:59:36;;;;;;;;;;;;;;;21.82;100.00;98249.13;5074034;28;19920;-46
2022/09/09 06:02:01;;;;;;;;;;;;;;;21.51;100.00;98251.09;5062488;28;19966;-45
2022/09/09 06:04:26;;;;;;;;;;;;;;;21.45;100.00;98256.84;5074201;28;20179;-45
2022/09/09 06:06:51;;;;;;;;;;;;;;;22.22;100.00;98250.78;5071672;28;19943;-46
2022/09/09 06:09:16;;;;;;;;;;;;;;;22.89;100.00;98243.63;5054333;28;19920;-47
2022/09/09 06:11:42;;;;;;;;;;;;;;;22.63;100.00;98247.91;5073302;28;19964;-46
2022/09/09 06:14:07;;;;;;;;;;;;;;;21.98;100.00;98245.97;5074039;28;19922;-45
2022/09/09 06:16:33;;;;;;;;;;;;;;;22.13;100.00;98255.06;5071819;28;19959;-45
2022/09/09 06:18:58;;;;;;;;;;;;;;;21.78;100.00;98252.19;5054644;28;20027;-46
2022/09/09 06:21:24;;;;;;;;;;;;;;;22.39;100.00;98248.41;5056138;28;20379;-46
2022/09/09 06:23:51;;;;;;;;;;;;;;;23.05;100.00;98247.47;5074755;28;20016;-45
2022/09/09 06:26:20;;;;;;;;;;;;;;;22.56;100.00;98252.91;5052319;28;20852;-46
2022/09/09 06:28:47;;;;;;;;;;;;;;;22.57;100.00;98258.97;5072683;28;19916;-46
2022/09/09 06:31:13;;;;;;;;;;;;;;;22.39;100.00;98256.28;5073466;28;19924;-47
2022/09/09 06:33:42;;;;;;;;;;;;;;;21.99;100.00;98258.13;5072689;28;19927;-45
2022/09/09 06:36:08;;;;;;;;;;;;;;;22.61;100.00;98260.34;5071219;28;19927;-46
2022/09/09 06:38:33;;;;;;;;;;;;;;;22.93;100.00;98250.25;5052934;28;19924;-47
2022/09/09 06:40:59;;;;;;;;;;;;;;;22.36;100.00;98262.63;5071150;28;19920;-46
2022/09/09 06:43:27;;;;;;;;;;;;;;;21.85;100.00;98263.75;5052939;28;20535;-45
2022/09/09 06:45:59;;;;;;;;;;;;;;;21.86;100.00;98258.38;5071852;28;20023;-45
2022/09/09 06:48:28;;;;;;;;;;;;;;;22.80;100.00;98257.63;5073115;28;19916;-45
2022/09/09 06:51:06;;;;;;;;;;;;;;;21.84;100.00;98252.44;5072079;28;19923;-47
2022/09/09 06:53:33;;;;;;;;;;;;;;;22.16;100.00;98255.75;5072971;28;19928;-47
2022/09/09 06:55:59;;;;;;;;;;;;;;;21.87;100.00;98256.59;5069786;28;20430;-46
2022/09/09 06:58:25;;;;;;;;;;;;;;;22.12;100.00;98245.53;5073706;28;19934;-46
2022/09/09 07:00:50;;;;;;;;;;;;;;;21.98;100.00;98251.19;5053981;28;19920;-46
2022/09/09 07:03:15;;;;;;;;;;;;;;;22.05;100.00;98249.66;5050358;28;19919;-46
2022/09/09 07:05:40;;;;;;;;;;;;;;;22.24;100.00;98253.28;5072387;28;19916;-46
2022/09/09 07:08:06;;;;;;;;;;;;;;;22.86;100.00;98246.56;5072651;28;20096;-45
2022/09/09 07:10:31;;;;;;;;;;;;;;;22.99;100.00;98243.66;5071205;28;20034;-46
2022/09/09 07:12:56;;;;;;;;;;;;;;;21.65;100.00;98257.72;5071827;28;19926;-46
2022/09/09 07:15:22;;;;;;;;;;;;;;;22.67;100.00;98254.50;5070626;28;19916;-45
2022/09/09 07:17:48;;;;;;;;;;;;;;;22.49;100.00;98252.66;5071722;28;19963;-46
2022/09/09 07:20:14;;;;;;;;;;;;;;;22.76;100.00;98253.66;5071906;28;20012;-45
2022/09/09 07:22:39;;;;;;;;;;;;;;;22.63;100.00;98250.53;5072055;28;19979;-46
2022/09/09 07:25:05;;;;;;;;;;;;;;;22.01;100.00;98264.06;5072571;28;20403;-46
2022/09/09 07:27:30;;;;;;;;;;;;;;;22.95;100.00;98253.56;5071675;28;20971;-46
2022/09/09 07:29:55;;;;;;;;;;;;;;;22.94;100.00;98266.84;5071904;28;20477;-45
2022/09/09 07:32:20;;;;;;;;;;;;;;;22.43;100.00;98274.22;5070326;28;20435;-46
2022/09/09 07:34:46;;;;;;;;;;;;;;;22.48;100.00;98261.47;5072000;28;19916;-46
2022/09/09 07:37:13;;;;;;;;;;;;;;;23.17;100.00;98259.41;5064192;28;19916;-46
2022/09/09 07:39:38;;;;;;;;;;;;;;;23.28;100.00;98263.66;5071986;28;20347;-46
2022/09/09 07:42:04;;;;;;;;;;;;;;;22.98;100.00;98268.19;5052745;28;19943;-49
2022/09/09 07:44:32;;;;;;;;;;;;;;;22.82;100.00;98265.38;5063490;28;20794;-47
2022/09/09 07:46:57;;;;;;;;;;;;;;;23.10;100.00;98266.22;5071910;28;20365;-47
2022/09/09 07:49:22;;;;;;;;;;;;;;;22.79;100.00;98273.56;5071266;28;19920;-48
2022/09/09 07:51:49;;;;;;;;;;;;;;;23.12;100.00;98264.28;5071918;28;19999;-46
2022/09/09 07:54:15;;;;;;;;;;;;;;;23.87;100.00;98261.44;5072671;28;19946;-48
2022/09/09 07:56:40;;;;;;;;;;;;;;;22.42;100.00;98274.34;5072640;28;19916;-47
2022/09/09 07:59:06;;;;;;;;;;;;;;;23.24;100.00;98265.75;5069440;28;19999;-47
2022/09/09 08:01:38;;;;;;;;;;;;;;;24.20;100.00;98260.72;5072238;28;19958;-47
2022/09/09 08:04:05;;;;;;;;;;;;;;;24.62;100.00;98254.75;5070566;28;19923;-47
2022/09/09 08:06:35;;;;;;;;;;;;;;;23.10;100.00;98271.50;5072408;28;19915;-48
2022/09/09 08:09:00;;;;;;;;;;;;;;;23.98;100.00;98263.84;5073669;28;19916;-49
2022/09/09 08:11:26;;;;;;;;;;;;;;;23.58;100.00;98270.34;5073113;28;20415;-49
2022/09/09 08:13:51;;;;;;;;;;;;;;;24.84;100.00;98255.19;5072693;28;20432;-47
2022/09/09 08:16:18;;;;;;;;;;;;;;;24.24;100.00;98255.97;5056837;28;19964;-47
2022/09/09 08:18:44;;;;;;;;;;;;;;;23.80;100.00;98264.69;5077154;28;19931;-48
2022/09/09 08:21:11;;;;;;;;;;;;;;;23.41;100.00;98274.63;5077054;28;19920;-47
2022/09/09 08:23:36;;;;;;;;;;;;;;;24.77;100.00;98255.00;5077096;28;20480;-48
2022/09/09 08:26:05;;;;;;;;;;;;;;;24.54;100.00;98256.50;5076503;28;19916;-47
2022/09/09 08:28:30;;;;;;;;;;;;;;;23.73;100.00;98274.13;5076821;28;19963;-50
2022/09/09 08:30:56;;;;;;;;;;;;;;;24.02;100.00;98270.47;5076125;28;20851;-49
2022/09/09 08:33:21;;;;;;;;;;;;;;;23.76;100.00;98279.09;5076986;28;20368;-49
2022/09/09 08:35:49;;;;;;;;;;;;;;;24.58;100.00;98263.94;5076162;28;19916;-47
2022/09/09 08:38:15;;;;;;;;;;;;;;;24.35;100.00;98273.31;5058891;28;20339;-47
2022/09/09 08:40:40;;;;;;;;;;;;;;;24.62;100.00;98281.06;5057803;28;19928;-49
2022/09/09 08:43:06;;;;;;;;;;;;;;;24.33;100.00;98276.09;5077113;28;19916;-49
2022/09/09 08:45:35;;;;;;;;;;;;;;;23.85;100.00;98281.81;5057843;28;19923;-50
2022/09/09 08:48:03;;;;;;;;;;;;;;;24.67;100.00;98272.72;5059620;28;20107;-49
2022/09/09 08:50:33;;;;;;;;;;;;;;;24.69;100.00;98265.47;5076336;28;19974;-51
2022/09/09 08:53:08;;;;;;;;;;;;;;;23.68;100.00;98271.13;5058592;28;19970;-47
2022/09/09 08:55:39;;;;;;;;;;;;;;;24.86;100.00;98266.41;5076103;28;19924;-51
2022/09/09 08:58:14;;;;;;;;;;;;;;;25.18;100.00;98264.84;5076287;28;19916;-48
2022/09/09 09:01:00;;;;;;;;;;;;;;;25.77;100.00;98265.69;5055742;28;20376;-48
2022/09/09 09:03:30;;;;;;;;;;;;;;;25.87;99.54;98261.06;5033508;28;19916;-49
2022/09/09 09:06:06;;;;;;;;;;;;;;;25.42;100.00;98272.84;5057930;28;19916;-47
2022/09/09 09:08:32;;;;;;;;;;;;;;;25.73;98.96;98266.13;5058015;28;19916;-50
2022/09/09 09:10:58;;;;;;;;;;;;;;;24.98;97.04;98265.13;5076914;28;19916;-51
2022/09/09 09:13:38;;;;;;;;;;;;;;;25.58;99.26;98268.59;5057153;28;20058;-49
2022/09/09 09:16:14;;;;;;;;;;;;;;;25.84;94.54;98271.94;5046273;28;19965;-49
2022/09/09 09:18:39;;;;;;;;;;;;;;;25.82;92.71;98281.00;5057992;28;19916;-48
2022/09/09 09:21:04;;;;;;;;;;;;;;;26.28;91.88;98271.59;5076356;28;19923;-50
2022/09/09 09:23:33;;;;;;;;;;;;;;;27.01;88.96;98264.50;5076003;28;19920;-47
2022/09/09 09:25:59;;;;;;;;;;;;;;;26.84;85.32;98268.19;5055090;28;19916;-49
2022/09/09 09:28:25;;;;;;;;;;;;;;;27.13;90.13;98271.03;5075155;28;19933;-47
2022/09/09 09:30:58;;;;;;;;;;;;;;;27.69;84.83;98268.28;5076256;28;19999;-47
2022/09/09 09:34:02;;;;;;;;;;;;;;;27.42;84.13;98271.44;5076031;28;19920;-50
2022/09/09 09:36:53;;;;;;;;;;;;;;;27.42;85.09;98274.06;5011805;28;19999;-47
2022/09/09 09:39:26;;;;;;;;;;;;;;;26.98;84.98;98280.72;5009237;28;19936;-49
2022/09/09 09:41:51;;;;;;;;;;;;;;;26.50;88.15;98266.59;5056098;28;20792;-47
2022/09/09 09:44:25;;;;;;;;;;;;;;;26.54;88.17;98267.91;5056940;28;20023;-49
2022/09/09 09:46:51;;;;;;;;;;;;;;;27.28;85.66;98270.34;5075217;28;19961;-46
2022/09/09 09:49:17;;;;;;;;;;;;;;;26.81;85.09;98269.38;5075541;28;19932;-47
2022/09/09 09:51:42;;;;;;;;;;;;;;;27.10;84.40;98262.66;5075747;28;19934;-46
2022/09/09 09:54:09;;;;;;;;;;;;;;;27.84;82.57;98255.09;5057845;28;19966;-49
2022/09/09 09:56:34;;;;;;;;;;;;;;;28.39;79.15;98257.59;5074107;28;19920;-48
2022/09/09 09:58:59;;;;;;;;;;;;;;;27.70;80.22;98259.31;5075956;28;19961;-47
2022/09/09 10:01:25;;;;;;;;;;;;;;;27.02;81.69;98257.38;5074083;28;19916;-49
2022/09/09 10:03:51;;;;;;;;;;;;;;;27.25;81.38;98260.94;5075065;28;20433;-49
2022/09/09 10:06:16;;;;;;;;;;;;;;;28.36;76.33;98256.97;5075362;28;20287;-47
2022/09/09 10:08:47;;;;;;;;;;;;;;;28.20;77.72;98259.78;5075123;28;19916;-47
2022/09/09 10:11:19;;;;;;;;;;;;;;;28.89;72.47;98259.53;5076027;28;20019;-47
2022/09/09 10:13:45;;;;;;;;;;;;;;;27.46;77.35;98259.47;5075180;28;19977;-47
2022/09/09 10:16:22;;;;;;;;;;;;;;;27.75;78.72;98262.25;5074563;28;19920;-48
2022/09/09 10:18:52;;;;;;;;;;;;;;;27.13;78.97;98265.75;5041313;28;20688;-47
2022/09/09 10:21:20;;;;;;;;;;;;;;;26.30;81.80;98266.19;5074755;28;20416;-46
2022/09/09 10:23:57;;;;;;;;;;;;;;;26.80;79.50;98265.09;5057304;28;20358;-47
2022/09/09 10:26:32;;;;;;;;;;;;;;;27.04;79.69;98269.44;5056165;28;19951;-50
2022/09/09 10:29:03;;;;;;;;;;;;;;;25.74;89.62;98287.06;5057459;28;20063;-48
2022/09/09 10:31:28;;;;;;;;;;;;;;;25.31;100.00;98290.78;5074224;28;20288;-48
2022/09/09 10:33:53;;;;;;;;;;;;;;;26.42;99.04;98285.94;5074340;28;19912;-48
2022/09/09 10:36:23;;;;;;;;;;;;;;;27.11;96.62;98291.53;5074074;28;19930;-52
2022/09/09 10:38:58;;;;;;;;;;;;;;;27.53;94.37;98293.00;5055717;28;19919;-49
2022/09/09 10:41:45;;;;;;;;;;;;;;;25.87;100.00;98298.00;5056273;28;19920;-50
2022/09/09 10:44:29;;;;;;;;;;;;;;;25.90;100.00;98293.41;5055810;28;19916;-49
2022/09/09 10:47:00;;;;;;;;;;;;;;;26.35;100.00;98278.88;5073927;28;19916;-49
2022/09/09 10:49:54;;;;;;;;;;;;;;;26.74;100.00;98278.16;5074450;28;19974;-49
2022/09/09 10:52:20;;;;;;;;;;;;;;;26.66;100.00;98285.09;5018259;28;19917;-51
2022/09/09 10:54:45;;;;;;;;;;;;;;;26.75;100.00;98282.44;5073839;28;19916;-48
2022/09/09 10:57:13;;;;;;;;;;;;;;;26.42;100.00;98279.84;5073358;28;19969;-49
2022/09/09 10:59:40;;;;;;;;;;;;;;;27.07;98.92;98270.91;5054878;28;19920;-49
2022/09/09 11:02:09;;;;;;;;;;;;;;;28.45;99.32;98262.19;5055849;28;19962;-51
2022/09/09 11:04:35;;;;;;;;;;;;;;;27.17;100.00;98273.34;5074638;28;19938;-52
2022/09/09 11:07:04;;;;;;;;;;;;;;;27.27;95.94;98266.06;5055230;28;19916;-50
2022/09/09 11:09:31;;;;;;;;;;;;;;;27.01;95.96;98264.50;5055900;28;19920;-49
2022/09/09 11:11:57;;;;;;;;;;;;;;;27.49;92.43;98257.31;5056140;28;19943;-50
2022/09/09 11:14:28;;;;;;;;;;;;;;;28.40;92.77;98259.25;5073419;28;20523;-49
2022/09/09 11:16:54;;;;;;;;;;;;;;;28.73;89.64;98260.56;5054857;28;19920;-49
2022/09/09 11:19:22;;;;;;;;;;;;;;;28.21;94.20;98257.94;5055634;28;19920;-51
2022/09/09 11:21:47;;;;;;;;;;;;;;;27.11;94.12;98262.44;5073939;28;19916;-48
2022/09/09 11:24:15;;;;;;;;;;;;;;;28.88;88.20;98247.31;5055128;28;19924;-50
2022/09/09 11:27:01;;;;;;;;;;;;;;;27.90;85.40;98241.19;5054891;28;19916;-51
2022/09/09 11:29:29;;;;;;;;;;;;;;;27.31;89.26;98246.19;5073232;28;19923;-49
2022/09/09 11:32:13;;;;;;;;;;;;;;;28.43;87.63;98237.69;5074484;28;19920;-49
2022/09/09 11:34:51;;;;;;;;;;;;;;;28.25;86.13;98235.41;5072976;28;19999;-50
2022/09/09 11:37:37;;;;;;;;;;;;;;;28.76;83.66;98233.72;5053069;28;19916;-48
2022/09/09 11:40:06;;;;;;;;;;;;;;;28.63;84.99;98238.84;5040629;28;20851;-48
2022/09/09 11:42:31;;;;;;;;;;;;;;;28.17;82.19;98238.97;5073001;28;19916;-47
2022/09/09 11:44:57;;;;;;;;;;;;;;;27.73;81.03;98239.63;5073893;28;19916;-49
2022/09/09 11:47:24;;;;;;;;;;;;;;;28.03;82.33;98242.38;5054869;28;19916;-48
2022/09/09 11:49:49;;;;;;;;;;;;;;;27.72;80.69;98252.03;5073965;28;19923;-48
2022/09/09 11:52:33;;;;;;;;;;;;;;;26.92;84.88;98254.97;5074210;28;19920;-47
2022/09/09 11:54:59;;;;;;;;;;;;;;;27.60;82.98;98247.31;5073744;28;19924;-49
2022/09/09 11:57:25;;;;;;;;;;;;;;;27.60;81.50;98249.97;5053113;28;19916;-47
2022/09/09 11:59:54;;;;;;;;;;;;;;;27.29;81.18;98246.38;5054438;28;20399;-47
2022/09/09 12:02:23;;;;;;;;;;;;;;;27.19;80.31;98250.22;5073419;28;19923;-47
2022/09/09 12:04:53;;;;;;;;;;;;;;;27.14;79.96;98240.13;5055104;28;19916;-47
2022/09/09 12:07:20;;;;;;;;;;;;;;;27.26;76.84;98243.25;5055131;28;19928;-47
2022/09/09 12:09:48;;;;;;;;;;;;;;;27.97;78.86;98236.00;5073426;28;19974;-47
2022/09/09 12:12:13;;;;;;;;;;;;;;;29.05;74.05;98237.31;5073548;28;19927;-48
2022/09/09 12:14:41;;;;;;;;;;;;;;;29.57;70.89;98236.25;5072549;28;19924;-47
2022/09/09 12:17:10;;;;;;;;;;;;;;;29.88;67.30;98231.66;5073013;28;19912;-47
2022/09/09 12:19:35;;;;;;;;;;;;;;;30.01;67.76;98232.56;5073238;28;19979;-47
2022/09/09 12:22:04;;;;;;;;;;;;;;;30.27;64.51;98231.19;5073289;28;19920;-47
2022/09/09 12:24:29;;;;;;;;;;;;;;;29.98;61.89;98232.97;5054889;28;19961;-48
2022/09/09 12:26:55;;;;;;;;;;;;;;;28.34;64.17;98234.31;5072388;28;19919;-48
2022/09/09 12:29:33;;;;;;;;;;;;;;;28.52;65.35;98223.41;5059722;28;20376;-47
2022/09/09 12:32:04;;;;;;;;;;;;;;;28.77;65.50;98235.34;5054822;28;19923;-47
2022/09/09 12:34:59;;;;;;;;;;;;;;;29.16;65.42;98233.38;5068216;28;20007;-49
2022/09/09 12:37:45;;;;;;;;;;;;;;;29.54;63.04;98227.88;5052786;28;19927;-47
2022/09/09 12:40:24;;;;;;;;;;;;;;;30.70;56.68;98231.03;5071790;28;20003;-47
2022/09/09 12:42:50;;;;;;;;;;;;;;;30.18;57.83;98234.97;5073127;28;19916;-47
2022/09/09 12:45:19;;;;;;;;;;;;;;;30.22;58.64;98223.75;5072525;28;21098;-50